createdAt,value
2016-07-26T00:00:19.979Z,23.2
2016-07-26T00:01:20.724Z,23.23
2016-07-26T00:02:20.036Z,23.2
2016-07-26T00:03:20.062Z,23.17
2016-07-26T00:04:20.096Z,23.2
2016-07-26T00:05:21.055Z,23.27
2016-07-26T00:06:20.156Z,23.21
2016-07-26T00:07:20.183Z,23.23
2016-07-26T00:08:20.210Z,23.25
2016-07-26T00:09:20.253Z,23.27
2016-07-26T00:10:20.276Z,23.23
2016-07-26T00:11:20.302Z,23.18
2016-07-26T00:12:20.337Z,23.34
2016-07-26T00:13:20.363Z,23.17
2016-07-26T00:14:20.387Z,23.15
2016-07-26T00:15:20.419Z,23.09
2016-07-26T00:16:20.447Z,23.13
2016-07-26T00:17:20.475Z,23.17
2016-07-26T00:18:20.506Z,23.17
2016-07-26T00:19:20.535Z,23.17
2016-07-26T00:20:20.565Z,23.13
2016-07-26T00:21:20.592Z,23.1
2016-07-26T00:22:22.051Z,23.09
2016-07-26T00:23:21.362Z,23.09
2016-07-26T00:24:20.677Z,23.09
2016-07-26T00:25:20.709Z,23.08
2016-07-26T00:26:20.736Z,23.06
2016-07-26T00:27:20.769Z,23.06
2016-07-26T00:28:20.797Z,23.08
2016-07-26T00:29:20.844Z,23.03
2016-07-26T00:30:20.856Z,23.1
2016-07-26T00:31:20.890Z,23.08
2016-07-26T00:32:21.635Z,23.06
2016-07-26T00:33:20.944Z,23.09
2016-07-26T00:34:21.684Z,23.12
2016-07-26T00:35:21.717Z,23.05
2016-07-26T00:36:21.053Z,23.03
2016-07-26T00:37:21.780Z,23.08
2016-07-26T00:38:21.800Z,23.02
2016-07-26T00:39:21.117Z,23
2016-07-26T00:40:21.151Z,23.05
2016-07-26T00:41:21.177Z,23.03
2016-07-26T00:42:21.914Z,23.02
2016-07-26T00:43:21.240Z,23.06
2016-07-26T00:44:21.273Z,23.08
2016-07-26T00:45:21.300Z,23.05
2016-07-26T00:46:22.035Z,23.03
2016-07-26T00:47:21.355Z,23.09
2016-07-26T00:48:21.389Z,23.05
2016-07-26T00:49:21.412Z,23.02
2016-07-26T00:50:21.440Z,23.09
2016-07-26T00:51:21.475Z,23.06
2016-07-26T00:52:21.506Z,23.06
2016-07-26T00:53:21.533Z,23.09
2016-07-26T00:54:21.562Z,23.06
2016-07-26T00:55:21.635Z,23.09
2016-07-26T00:56:21.617Z,23.06
2016-07-26T00:57:21.645Z,23.09
2016-07-26T00:58:22.384Z,23.05
2016-07-26T00:59:21.702Z,23.13
2016-07-26T01:00:21.739Z,23.09
2016-07-26T01:01:21.766Z,23.1
2016-07-26T01:02:21.806Z,23.12
2016-07-26T01:03:21.821Z,23.18
2016-07-26T01:04:23.270Z,23.17
2016-07-26T01:05:21.876Z,23.21
2016-07-26T01:06:21.908Z,23.09
2016-07-26T01:07:21.938Z,23.2
2016-07-26T01:08:21.967Z,23.15
2016-07-26T01:09:22.010Z,23.13
2016-07-26T01:10:22.027Z,23.2
2016-07-26T01:11:22.761Z,23.18
2016-07-26T01:12:22.083Z,23.2
2016-07-26T01:13:22.124Z,23.13
2016-07-26T01:14:22.149Z,23.17
2016-07-26T01:15:22.169Z,23.15
2016-07-26T01:16:22.202Z,23.13
2016-07-26T01:17:22.235Z,23.18
2016-07-26T01:18:22.267Z,23.13
2016-07-26T01:19:23.003Z,23.25
2016-07-26T01:20:22.319Z,23.2
2016-07-26T01:21:23.059Z,23.28
2016-07-26T01:22:22.373Z,23.23
2016-07-26T01:23:22.410Z,23.25
2016-07-26T01:24:22.434Z,23.31
2016-07-26T01:25:22.480Z,23.27
2016-07-26T01:26:22.517Z,23.25
2016-07-26T01:27:22.530Z,23.23
2016-07-26T01:28:22.626Z,23.27
2016-07-26T01:29:22.584Z,23.27
2016-07-26T01:30:24.030Z,23.24
2016-07-26T01:31:23.351Z,23.24
2016-07-26T01:32:23.383Z,23.28
2016-07-26T01:33:23.405Z,23.24
2016-07-26T01:34:23.436Z,23.2
2016-07-26T01:35:22.766Z,23.24
2016-07-26T01:36:23.496Z,23.25
2016-07-26T01:37:22.819Z,23.17
2016-07-26T01:38:22.847Z,23.25
2016-07-26T01:39:22.876Z,23.12
2016-07-26T01:40:22.902Z,23.24
2016-07-26T01:41:22.946Z,23.24
2016-07-26T01:42:22.962Z,23.31
2016-07-26T01:43:23.006Z,23.25
2016-07-26T01:44:23.734Z,23.24
2016-07-26T01:45:23.760Z,23.31
2016-07-26T01:46:24.680Z,23.21
2016-07-26T01:47:23.114Z,23.21
2016-07-26T01:48:23.138Z,23.2
2016-07-26T01:49:23.172Z,23.17
2016-07-26T01:50:23.198Z,23.2
2016-07-26T01:51:23.232Z,23.18
2016-07-26T01:52:23.276Z,23.24
2016-07-26T01:53:23.289Z,23.17
2016-07-26T01:54:23.324Z,23.23
2016-07-26T01:55:23.351Z,23.13
2016-07-26T01:56:23.371Z,23.24
2016-07-26T01:57:23.403Z,23.24
2016-07-26T01:58:24.150Z,23.23
2016-07-26T01:59:23.483Z,23.25
2016-07-26T02:00:23.496Z,23.24
2016-07-26T02:01:24.236Z,23.25
2016-07-26T02:02:23.551Z,23.25
2016-07-26T02:03:24.292Z,23.23
2016-07-26T02:04:23.612Z,23.21
2016-07-26T02:05:23.644Z,23.25
2016-07-26T02:06:24.409Z,23.31
2016-07-26T02:07:23.702Z,23.27
2016-07-26T02:08:23.733Z,23.21
2016-07-26T02:09:24.465Z,23.27
2016-07-26T02:10:23.792Z,23.2
2016-07-26T02:11:24.534Z,23.27
2016-07-26T02:12:25.267Z,23.24
2016-07-26T02:13:24.587Z,23.27
2016-07-26T02:14:23.921Z,23.24
2016-07-26T02:15:23.934Z,23.25
2016-07-26T02:16:23.963Z,23.32
2016-07-26T02:17:23.992Z,23.34
2016-07-26T02:18:24.733Z,23.4
2016-07-26T02:19:24.768Z,23.39
2016-07-26T02:20:24.789Z,23.39
2016-07-26T02:21:24.109Z,23.41
2016-07-26T02:22:24.149Z,23.36
2016-07-26T02:23:24.167Z,23.28
2016-07-26T02:24:24.207Z,23.37
2016-07-26T02:25:24.937Z,23.39
2016-07-26T02:26:24.294Z,23.4
2016-07-26T02:27:24.295Z,23.4
2016-07-26T02:28:24.319Z,23.37
2016-07-26T02:29:25.066Z,23.43
2016-07-26T02:30:25.122Z,23.37
2016-07-26T02:31:24.415Z,23.39
2016-07-26T02:32:24.437Z,23.34
2016-07-26T02:33:24.465Z,23.41
2016-07-26T02:34:24.493Z,23.32
2016-07-26T02:35:24.527Z,23.4
2016-07-26T02:36:25.267Z,23.37
2016-07-26T02:37:25.291Z,23.46
2016-07-26T02:38:25.422Z,23.39
2016-07-26T02:39:24.655Z,23.31
2016-07-26T02:40:24.669Z,23.34
2016-07-26T02:41:24.702Z,23.37
2016-07-26T02:42:24.728Z,23.37
2016-07-26T02:43:24.761Z,23.28
2016-07-26T02:44:24.786Z,23.39
2016-07-26T02:45:25.532Z,23.37
2016-07-26T02:46:24.853Z,23.28
2016-07-26T02:47:24.876Z,23.39
2016-07-26T02:48:25.617Z,23.43
2016-07-26T02:49:24.951Z,23.41
2016-07-26T02:50:25.678Z,23.41
2016-07-26T02:51:25.006Z,23.31
2016-07-26T02:52:25.117Z,23.34
2016-07-26T02:53:25.051Z,23.34
2016-07-26T02:54:25.081Z,23.37
2016-07-26T02:55:25.827Z,23.37
2016-07-26T02:56:25.158Z,23.28
2016-07-26T02:57:25.184Z,23.4
2016-07-26T02:58:25.201Z,23.41
2016-07-26T02:59:25.228Z,23.32
2016-07-26T03:00:25.259Z,23.41
2016-07-26T03:01:25.286Z,23.32
2016-07-26T03:02:25.319Z,23.4
2016-07-26T03:03:25.370Z,23.37
2016-07-26T03:04:25.382Z,23.39
2016-07-26T03:05:25.406Z,23.27
2016-07-26T03:06:25.432Z,23.36
2016-07-26T03:07:25.468Z,23.48
2016-07-26T03:08:25.499Z,23.44
2016-07-26T03:09:25.608Z,23.36
2016-07-26T03:10:25.567Z,23.51
2016-07-26T03:11:26.301Z,23.5
2016-07-26T03:12:26.320Z,23.46
2016-07-26T03:13:26.350Z,23.47
2016-07-26T03:14:25.673Z,23.47
2016-07-26T03:15:25.696Z,23.51
2016-07-26T03:16:26.508Z,23.55
2016-07-26T03:17:26.471Z,23.48
2016-07-26T03:18:25.786Z,23.47
2016-07-26T03:19:25.813Z,23.51
2016-07-26T03:20:25.845Z,23.5
2016-07-26T03:21:25.881Z,23.46
2016-07-26T03:22:25.973Z,23.32
2016-07-26T03:23:25.931Z,23.34
2016-07-26T03:24:25.969Z,23.25
2016-07-26T03:25:25.992Z,23.32
2016-07-26T03:26:26.020Z,23.36
2016-07-26T03:27:26.051Z,23.4
2016-07-26T03:28:26.086Z,23.37
2016-07-26T03:29:26.113Z,23.36
2016-07-26T03:30:26.848Z,23.37
2016-07-26T03:31:26.165Z,23.32
2016-07-26T03:32:26.199Z,23.32
2016-07-26T03:33:26.227Z,23.48
2016-07-26T03:34:26.256Z,23.43
2016-07-26T03:35:26.295Z,23.39
2016-07-26T03:36:26.320Z,23.47
2016-07-26T03:37:26.348Z,23.44
2016-07-26T03:38:26.370Z,23.48
2016-07-26T03:39:26.402Z,23.36
2016-07-26T03:40:26.431Z,23.46
2016-07-26T03:41:26.460Z,23.43
2016-07-26T03:42:26.491Z,23.47
2016-07-26T03:43:26.524Z,23.5
2016-07-26T03:44:26.550Z,23.47
2016-07-26T03:45:27.286Z,23.55
2016-07-26T03:46:27.323Z,23.44
2016-07-26T03:47:26.639Z,23.47
2016-07-26T03:48:26.668Z,23.48
2016-07-26T03:49:26.694Z,23.48
2016-07-26T03:50:26.725Z,23.5
2016-07-26T03:51:26.767Z,23.55
2016-07-26T03:52:26.788Z,23.5
2016-07-26T03:53:27.521Z,23.5
2016-07-26T03:54:27.565Z,23.55
2016-07-26T03:55:26.919Z,23.44
2016-07-26T03:56:26.903Z,23.5
2016-07-26T03:57:26.932Z,23.46
2016-07-26T03:58:26.964Z,23.39
2016-07-26T03:59:26.993Z,23.47
2016-07-26T04:00:27.756Z,23.46
2016-07-26T04:01:27.052Z,23.48
2016-07-26T04:02:27.080Z,23.48
2016-07-26T04:03:27.105Z,23.51
2016-07-26T04:04:27.141Z,23.47
2016-07-26T04:05:27.164Z,23.47
2016-07-26T04:06:27.199Z,23.47
2016-07-26T04:07:27.226Z,23.44
2016-07-26T04:08:27.974Z,23.51
2016-07-26T04:09:27.294Z,23.48
2016-07-26T04:10:27.312Z,23.46
2016-07-26T04:11:27.341Z,23.5
2016-07-26T04:12:28.083Z,23.47
2016-07-26T04:13:27.401Z,23.48
2016-07-26T04:14:27.430Z,23.5
2016-07-26T04:15:27.495Z,23.5
2016-07-26T04:16:28.204Z,23.48
2016-07-26T04:17:27.517Z,23.46
2016-07-26T04:18:27.553Z,23.47
2016-07-26T04:20:28.322Z,23.51
2016-07-26T04:21:27.636Z,23.63
2016-07-26T04:22:27.664Z,23.55
2016-07-26T04:23:27.695Z,23.55
2016-07-26T04:24:29.173Z,23.48
2016-07-26T04:25:27.759Z,23.58
2016-07-26T04:26:27.781Z,23.55
2016-07-26T04:27:27.813Z,23.62
2016-07-26T04:28:28.554Z,23.58
2016-07-26T04:29:27.874Z,23.59
2016-07-26T04:30:27.899Z,23.54
2016-07-26T04:31:27.929Z,23.51
2016-07-26T04:32:27.967Z,23.63
2016-07-26T04:33:27.991Z,23.55
2016-07-26T04:34:28.057Z,23.56
2016-07-26T04:35:28.048Z,23.56
2016-07-26T04:36:28.081Z,23.54
2016-07-26T04:37:28.107Z,23.47
2016-07-26T04:38:28.136Z,23.47
2016-07-26T04:39:28.165Z,23.44
2016-07-26T04:40:28.196Z,23.47
2016-07-26T04:41:28.224Z,23.5
2016-07-26T04:42:28.252Z,23.48
2016-07-26T04:43:28.298Z,23.47
2016-07-26T04:44:28.311Z,23.5
2016-07-26T04:45:28.343Z,23.5
2016-07-26T04:46:28.368Z,23.44
2016-07-26T04:47:29.107Z,23.5
2016-07-26T04:48:28.432Z,23.44
2016-07-26T04:49:28.496Z,23.5
2016-07-26T04:50:28.504Z,23.46
2016-07-26T04:51:28.516Z,23.46
2016-07-26T04:52:28.553Z,23.51
2016-07-26T04:53:28.573Z,23.47
2016-07-26T04:54:28.605Z,23.46
2016-07-26T04:55:28.644Z,23.5
2016-07-26T04:56:28.661Z,23.47
2016-07-26T04:57:29.431Z,23.46
2016-07-26T04:58:28.719Z,23.55
2016-07-26T04:59:28.751Z,23.58
2016-07-26T05:00:28.782Z,23.56
2016-07-26T05:01:28.810Z,23.46
2016-07-26T05:02:28.840Z,23.61
2016-07-26T05:03:28.867Z,23.56
2016-07-26T05:04:28.907Z,23.54
2016-07-26T05:05:28.927Z,23.43
2016-07-26T05:06:28.956Z,23.56
2016-07-26T05:07:29.008Z,23.5
2016-07-26T05:08:29.016Z,23.5
2016-07-26T05:09:29.044Z,23.56
2016-07-26T05:10:29.077Z,23.56
2016-07-26T05:11:29.104Z,23.54
2016-07-26T05:12:29.853Z,23.54
2016-07-26T05:13:29.166Z,23.65
2016-07-26T05:14:29.900Z,23.63
2016-07-26T05:15:29.227Z,23.65
2016-07-26T05:16:29.967Z,23.56
2016-07-26T05:17:29.277Z,23.55
2016-07-26T05:18:30.022Z,23.65
2016-07-26T05:19:29.358Z,23.62
2016-07-26T05:20:29.367Z,23.66
2016-07-26T05:21:29.396Z,23.68
2016-07-26T05:22:29.434Z,23.74
2016-07-26T05:23:30.172Z,23.71
2016-07-26T05:24:29.487Z,23.76
2016-07-26T05:25:29.514Z,23.71
2016-07-26T05:26:29.543Z,23.71
2016-07-26T05:27:29.574Z,23.73
2016-07-26T05:28:29.604Z,23.71
2016-07-26T05:29:29.637Z,23.76
2016-07-26T05:30:29.665Z,23.8
2016-07-26T05:31:29.692Z,23.8
2016-07-26T05:32:29.717Z,23.74
2016-07-26T05:33:29.790Z,23.8
2016-07-26T05:34:29.779Z,23.83
2016-07-26T05:35:30.534Z,23.84
2016-07-26T05:36:29.839Z,23.8
2016-07-26T05:37:30.580Z,23.81
2016-07-26T05:38:29.898Z,23.83
2016-07-26T05:39:30.638Z,23.87
2016-07-26T05:40:29.970Z,23.88
2016-07-26T05:41:29.992Z,23.88
2016-07-26T05:42:30.016Z,23.98
2016-07-26T05:43:30.042Z,23.81
2016-07-26T05:44:30.076Z,24.02
2016-07-26T05:45:30.104Z,23.92
2016-07-26T05:46:30.843Z,24.02
2016-07-26T05:47:30.179Z,23.98
2016-07-26T05:48:30.198Z,23.91
2016-07-26T05:49:30.244Z,23.99
2016-07-26T05:50:30.255Z,23.95
2016-07-26T05:51:30.284Z,23.95
2016-07-26T05:52:30.316Z,24.05
2016-07-26T05:53:30.349Z,24.1
2016-07-26T05:54:30.381Z,24.03
2016-07-26T05:55:31.124Z,24.11
2016-07-26T05:56:30.435Z,24.03
2016-07-26T05:57:30.459Z,24.08
2016-07-26T05:58:30.493Z,24.1
2016-07-26T05:59:30.519Z,24.08
2016-07-26T06:00:30.547Z,24.18
2016-07-26T06:01:30.582Z,24.18
2016-07-26T06:02:30.612Z,24.11
2016-07-26T06:03:30.638Z,24.1
2016-07-26T06:04:30.694Z,24.2
2016-07-26T06:05:30.700Z,24.21
2016-07-26T06:06:30.729Z,24.28
2016-07-26T06:07:30.769Z,24.24
2016-07-26T06:08:30.801Z,24.3
2016-07-26T06:09:31.530Z,24.28
2016-07-26T06:10:30.853Z,24.32
2016-07-26T06:11:30.891Z,24.47
2016-07-26T06:12:30.914Z,24.36
2016-07-26T06:13:30.941Z,24.4
2016-07-26T06:14:30.979Z,24.42
2016-07-26T06:15:30.996Z,24.47
2016-07-26T06:16:31.031Z,24.47
2016-07-26T06:17:31.072Z,24.53
2016-07-26T06:18:31.104Z,24.51
2016-07-26T06:19:31.138Z,24.5
2016-07-26T06:20:31.866Z,24.58
2016-07-26T06:21:31.176Z,24.54
2016-07-26T06:22:31.223Z,24.65
2016-07-26T06:23:31.970Z,24.51
2016-07-26T06:24:31.266Z,24.61
2016-07-26T06:25:31.299Z,24.58
2016-07-26T06:26:31.330Z,24.57
2016-07-26T06:27:31.361Z,24.57
2016-07-26T06:28:32.100Z,24.58
2016-07-26T06:29:31.427Z,24.61
2016-07-26T06:30:31.454Z,24.66
2016-07-26T06:31:32.190Z,24.7
2016-07-26T06:32:31.510Z,24.76
2016-07-26T06:33:32.254Z,24.86
2016-07-26T06:34:31.573Z,24.84
2016-07-26T06:35:31.630Z,24.86
2016-07-26T06:36:31.650Z,24.81
2016-07-26T06:37:31.660Z,24.88
2016-07-26T06:38:32.407Z,24.84
2016-07-26T06:39:31.723Z,24.92
2016-07-26T06:40:33.178Z,24.92
2016-07-26T06:41:31.791Z,24.99
2016-07-26T06:42:31.811Z,25.03
2016-07-26T06:43:32.558Z,24.99
2016-07-26T06:44:31.875Z,25.14
2016-07-26T06:45:32.609Z,25.08
2016-07-26T06:46:31.932Z,25.03
2016-07-26T06:47:31.966Z,24.99
2016-07-26T06:48:31.996Z,25.17
2016-07-26T06:49:32.025Z,25.17
2016-07-26T06:50:32.050Z,25.22
2016-07-26T06:51:32.088Z,25.23
2016-07-26T06:52:32.129Z,25.29
2016-07-26T06:53:32.154Z,25.25
2016-07-26T06:54:32.176Z,25.43
2016-07-26T06:55:32.205Z,25.44
2016-07-26T06:56:32.947Z,25.48
2016-07-26T06:57:32.267Z,25.41
2016-07-26T06:58:32.299Z,25.48
2016-07-26T06:59:32.335Z,25.53
2016-07-26T07:00:32.358Z,25.51
2016-07-26T07:01:32.389Z,25.53
2016-07-26T07:02:32.418Z,25.6
2016-07-26T07:03:32.452Z,25.63
2016-07-26T07:04:32.486Z,25.66
2016-07-26T07:05:33.232Z,25.72
2016-07-26T07:06:32.541Z,25.69
2016-07-26T07:07:48.176Z,25.72
2016-07-26T07:08:32.604Z,25.8
2016-07-26T07:09:32.655Z,25.75
2016-07-26T07:10:32.665Z,25.84
2016-07-26T07:11:32.698Z,25.9
2016-07-26T07:12:32.733Z,25.84
2016-07-26T07:13:32.759Z,25.91
2016-07-26T07:14:33.501Z,25.88
2016-07-26T07:15:32.826Z,25.95
2016-07-26T07:16:32.862Z,25.95
2016-07-26T07:17:32.886Z,26.05
2016-07-26T07:18:32.910Z,26.15
2016-07-26T07:19:32.943Z,26.15
2016-07-26T07:20:33.683Z,26.18
2016-07-26T07:21:33.008Z,26.07
2016-07-26T07:22:33.035Z,26.16
2016-07-26T07:23:33.070Z,26.26
2016-07-26T07:24:33.097Z,26.31
2016-07-26T07:25:33.839Z,26.25
2016-07-26T07:26:34.580Z,26.26
2016-07-26T07:27:33.193Z,26.29
2016-07-26T07:28:33.932Z,26.28
2016-07-26T07:29:33.254Z,26.37
2016-07-26T07:30:33.288Z,26.4
2016-07-26T07:31:33.318Z,26.43
2016-07-26T07:32:34.074Z,26.33
2016-07-26T07:33:33.384Z,26.4
2016-07-26T07:34:34.123Z,26.37
2016-07-26T07:35:33.441Z,26.37
2016-07-26T07:36:33.475Z,26.44
2016-07-26T07:37:33.505Z,26.52
2016-07-26T07:38:33.538Z,26.45
2016-07-26T07:39:33.567Z,26.56
2016-07-26T07:40:33.602Z,26.6
2016-07-26T07:41:34.341Z,26.6
2016-07-26T07:42:33.676Z,26.65
2016-07-26T07:43:33.695Z,26.66
2016-07-26T07:44:33.727Z,26.66
2016-07-26T07:45:34.466Z,26.8
2016-07-26T07:46:33.789Z,26.85
2016-07-26T07:47:33.819Z,26.84
2016-07-26T07:48:33.852Z,26.83
2016-07-26T07:49:33.901Z,26.89
2016-07-26T07:50:33.916Z,26.92
2016-07-26T07:51:33.964Z,26.81
2016-07-26T07:52:34.690Z,26.85
2016-07-26T07:53:34.008Z,26.75
2016-07-26T07:54:34.042Z,26.83
2016-07-26T07:55:34.074Z,26.96
2016-07-26T07:56:34.106Z,26.92
2016-07-26T07:57:34.879Z,26.96
2016-07-26T07:58:34.171Z,27.02
2016-07-26T07:59:34.200Z,27.05
2016-07-26T08:00:34.941Z,27.07
2016-07-26T08:01:34.975Z,27.22
2016-07-26T08:02:35.003Z,27.17
2016-07-26T08:03:34.337Z,27.21
2016-07-26T08:04:34.358Z,27.15
2016-07-26T08:05:34.393Z,27.22
2016-07-26T08:06:34.424Z,27.27
2016-07-26T08:07:35.167Z,27.32
2016-07-26T08:08:35.198Z,27.27
2016-07-26T08:09:34.520Z,27.25
2016-07-26T08:10:35.263Z,27.22
2016-07-26T08:11:34.588Z,27.21
2016-07-26T08:12:34.636Z,27.29
2016-07-26T08:13:35.356Z,27.26
2016-07-26T08:14:34.690Z,27.2
2016-07-26T08:15:34.708Z,27.26
2016-07-26T08:16:34.744Z,27.26
2016-07-26T08:17:35.486Z,27.12
2016-07-26T08:18:34.810Z,27.21
2016-07-26T08:19:35.549Z,27.27
2016-07-26T08:20:34.873Z,27.27
2016-07-26T08:21:34.905Z,27.25
2016-07-26T08:22:34.938Z,27.4
2016-07-26T08:23:34.983Z,27.39
2016-07-26T08:24:35.001Z,27.44
2016-07-26T08:25:35.032Z,27.42
2016-07-26T08:26:35.062Z,27.39
2016-07-26T08:27:35.096Z,27.49
2016-07-26T08:28:35.127Z,27.59
2016-07-26T08:29:35.159Z,27.63
2016-07-26T08:30:35.901Z,27.64
2016-07-26T08:31:35.225Z,27.68
2016-07-26T08:32:35.256Z,27.64
2016-07-26T08:34:35.320Z,27.67
2016-07-26T08:35:35.355Z,27.74
2016-07-26T08:36:35.389Z,27.78
2016-07-26T08:37:35.419Z,27.77
2016-07-26T08:38:35.450Z,27.77
2016-07-26T08:39:36.209Z,27.78
2016-07-26T08:40:35.515Z,27.77
2016-07-26T08:41:35.572Z,27.71
2016-07-26T08:42:35.579Z,27.67
2016-07-26T08:43:36.325Z,27.47
2016-07-26T08:44:35.643Z,27.55
2016-07-26T08:45:36.389Z,27.54
2016-07-26T08:46:35.712Z,27.51
2016-07-26T08:47:35.744Z,27.59
2016-07-26T08:48:37.192Z,27.59
2016-07-26T08:49:35.808Z,27.51
2016-07-26T08:50:35.842Z,27.55
2016-07-26T08:51:35.887Z,27.6
2016-07-26T08:52:36.615Z,27.55
2016-07-26T08:53:35.937Z,27.54
2016-07-26T08:54:35.969Z,27.55
2016-07-26T08:55:36.784Z,27.59
2016-07-26T08:56:36.035Z,27.58
2016-07-26T08:57:36.090Z,27.64
2016-07-26T08:58:36.099Z,27.63
2016-07-26T08:59:36.129Z,27.54
2016-07-26T09:00:36.162Z,27.65
2016-07-26T09:01:36.194Z,27.55
2016-07-26T09:02:36.230Z,27.49
2016-07-26T09:03:36.257Z,27.48
2016-07-26T09:04:36.298Z,27.42
2016-07-26T09:05:37.034Z,27.42
2016-07-26T09:06:36.375Z,27.45
2016-07-26T09:07:36.390Z,27.4
2016-07-26T09:08:36.420Z,27.45
2016-07-26T09:09:36.452Z,27.48
2016-07-26T09:10:36.483Z,27.55
2016-07-26T09:11:36.519Z,27.54
2016-07-26T09:12:36.591Z,27.51
2016-07-26T09:13:36.588Z,27.58
2016-07-26T09:14:36.613Z,27.64
2016-07-26T09:15:36.651Z,27.73
2016-07-26T09:16:36.677Z,27.68
2016-07-26T09:17:36.711Z,27.77
2016-07-26T09:18:37.448Z,27.68
2016-07-26T09:19:37.497Z,27.54
2016-07-26T09:20:36.806Z,27.68
2016-07-26T09:21:37.557Z,27.68
2016-07-26T09:22:36.891Z,27.47
2016-07-26T09:23:36.905Z,27.42
2016-07-26T09:24:36.935Z,27.45
2016-07-26T09:25:36.967Z,27.51
2016-07-26T09:26:36.998Z,27.45
2016-07-26T09:27:37.033Z,27.42
2016-07-26T09:28:37.064Z,27.4
2016-07-26T09:29:37.107Z,27.42
2016-07-26T09:30:37.127Z,27.44
2016-07-26T09:31:37.181Z,27.39
2016-07-26T09:32:37.190Z,27.44
2016-07-26T09:33:37.228Z,27.42
2016-07-26T09:34:37.968Z,27.44
2016-07-26T09:35:37.291Z,27.4
2016-07-26T09:36:37.325Z,27.37
2016-07-26T09:37:37.376Z,27.39
2016-07-26T09:38:37.386Z,27.35
2016-07-26T09:39:37.432Z,27.3
2016-07-26T09:40:37.449Z,27.22
2016-07-26T09:41:38.196Z,27.25
2016-07-26T09:42:38.225Z,27.25
2016-07-26T09:43:37.554Z,27.2
2016-07-26T09:44:37.575Z,27.22
2016-07-26T09:45:37.615Z,27.15
2016-07-26T09:46:37.642Z,27.22
2016-07-26T09:47:37.698Z,27.18
2016-07-26T09:48:38.414Z,27.12
2016-07-26T09:49:37.745Z,27.05
2016-07-26T09:50:37.777Z,27.1
2016-07-26T09:51:37.805Z,27.08
2016-07-26T09:52:37.837Z,27.05
2016-07-26T09:53:37.870Z,26.96
2016-07-26T09:54:38.625Z,26.89
2016-07-26T09:55:37.933Z,26.88
2016-07-26T09:56:37.985Z,26.81
2016-07-26T09:57:37.994Z,26.75
2016-07-26T09:58:38.029Z,26.77
2016-07-26T09:59:38.058Z,26.66
2016-07-26T10:00:38.093Z,26.63
2016-07-26T10:01:38.122Z,26.62
2016-07-26T10:02:38.155Z,26.58
2016-07-26T10:03:38.191Z,26.48
2016-07-26T10:04:38.221Z,26.52
2016-07-26T10:05:38.247Z,26.36
2016-07-26T10:06:38.282Z,26.28
2016-07-26T10:07:38.309Z,26.26
2016-07-26T10:08:39.053Z,26.18
2016-07-26T10:09:38.375Z,26.1
2016-07-26T10:10:38.409Z,26.03
2016-07-26T10:11:38.436Z,25.93
2016-07-26T10:12:38.482Z,25.91
2016-07-26T10:13:38.514Z,25.87
2016-07-26T10:14:40.489Z,25.8
2016-07-26T10:15:39.271Z,25.78
2016-07-26T10:16:39.536Z,25.65
2016-07-26T10:17:39.334Z,25.62
2016-07-26T10:18:38.657Z,25.5
2016-07-26T10:19:38.703Z,25.51
2016-07-26T10:20:39.432Z,25.58
2016-07-26T10:21:38.751Z,25.58
2016-07-26T10:22:38.782Z,25.62
2016-07-26T10:23:38.815Z,25.53
2016-07-26T10:24:38.844Z,25.6
2016-07-26T10:25:38.874Z,25.59
2016-07-26T10:26:38.909Z,25.54
2016-07-26T10:27:38.938Z,25.55
2016-07-26T10:28:38.969Z,25.51
2016-07-26T10:29:39.009Z,25.63
2016-07-26T10:30:39.738Z,25.63
2016-07-26T10:31:39.059Z,25.73
2016-07-26T10:32:39.090Z,25.6
2016-07-26T10:33:39.122Z,25.7
2016-07-26T10:34:39.151Z,25.72
2016-07-26T10:35:39.206Z,25.72
2016-07-26T10:36:39.209Z,25.72
2016-07-26T10:37:39.245Z,25.83
2016-07-26T10:38:39.275Z,25.83
2016-07-26T10:39:39.309Z,25.81
2016-07-26T10:40:39.334Z,25.85
2016-07-26T10:41:39.368Z,25.85
2016-07-26T10:42:39.397Z,25.96
2016-07-26T10:43:39.434Z,25.98
2016-07-26T10:44:39.466Z,26.03
2016-07-26T10:45:39.490Z,25.95
2016-07-26T10:46:54.415Z,26
2016-07-26T10:47:39.554Z,26.05
2016-07-26T10:48:40.432Z,26.15
2016-07-26T10:49:39.616Z,26.13
2016-07-26T10:50:39.646Z,26.13
2016-07-26T10:51:39.774Z,26.16
2016-07-26T10:52:39.708Z,26.28
2016-07-26T10:53:41.156Z,26.26
2016-07-26T10:54:39.771Z,26.28
2016-07-26T10:55:40.509Z,26.37
2016-07-26T10:56:40.543Z,26.38
2016-07-26T10:57:39.862Z,26.36
2016-07-26T10:58:39.897Z,26.4
2016-07-26T10:59:39.927Z,26.36
2016-07-26T11:00:39.959Z,26.37
2016-07-26T11:01:39.989Z,26.41
2016-07-26T11:02:40.030Z,26.41
2016-07-26T11:03:40.789Z,26.44
2016-07-26T11:04:40.083Z,26.41
2016-07-26T11:05:40.115Z,26.45
2016-07-26T11:06:40.147Z,26.34
2016-07-26T11:07:40.192Z,26.4
2016-07-26T11:08:40.226Z,26.37
2016-07-26T11:09:40.321Z,26.43
2016-07-26T11:10:40.269Z,26.41
2016-07-26T11:11:40.302Z,26.44
2016-07-26T11:12:41.055Z,26.37
2016-07-26T11:13:40.363Z,26.37
2016-07-26T11:14:40.394Z,26.33
2016-07-26T11:15:40.542Z,26.37
2016-07-26T11:16:40.462Z,26.37
2016-07-26T11:17:40.491Z,26.28
2016-07-26T11:18:40.522Z,26.28
2016-07-26T11:19:40.557Z,26.4
2016-07-26T11:20:42.013Z,26.38
2016-07-26T11:21:40.616Z,26.36
2016-07-26T11:22:40.647Z,26.48
2016-07-26T11:23:42.344Z,26.56
2016-07-26T11:24:41.525Z,26.59
2016-07-26T11:25:41.472Z,26.56
2016-07-26T11:26:40.776Z,26.47
2016-07-26T11:27:40.914Z,26.59
2016-07-26T11:28:40.841Z,26.56
2016-07-26T11:29:40.864Z,26.56
2016-07-26T11:30:41.766Z,26.56
2016-07-26T11:31:43.422Z,26.59
2016-07-26T11:32:40.961Z,26.55
2016-07-26T11:33:40.993Z,26.58
2016-07-26T11:34:41.043Z,26.63
2016-07-26T11:35:41.056Z,26.73
2016-07-26T11:36:41.091Z,26.78
2016-07-26T11:37:41.121Z,26.81
2016-07-26T11:38:41.157Z,26.71
2016-07-26T11:39:41.182Z,26.78
2016-07-26T11:40:41.213Z,26.71
2016-07-26T11:41:41.967Z,26.77
2016-07-26T11:42:41.279Z,26.78
2016-07-26T11:43:42.019Z,26.71
2016-07-26T11:44:41.363Z,26.75
2016-07-26T11:45:41.375Z,26.8
2016-07-26T11:46:42.121Z,26.78
2016-07-26T11:47:41.439Z,26.74
2016-07-26T11:48:41.469Z,26.71
2016-07-26T11:49:41.500Z,26.63
2016-07-26T11:50:42.243Z,26.65
2016-07-26T11:51:42.279Z,26.62
2016-07-26T11:52:41.590Z,26.58
2016-07-26T11:53:41.625Z,26.56
2016-07-26T11:54:41.665Z,26.45
2016-07-26T11:55:41.686Z,26.51
2016-07-26T11:56:41.727Z,26.58
2016-07-26T11:57:41.752Z,26.56
2016-07-26T11:58:41.787Z,26.53
2016-07-26T11:59:42.539Z,26.52
2016-07-26T12:00:42.556Z,26.43
2016-07-26T12:01:41.873Z,26.51
2016-07-26T12:02:41.920Z,26.41
2016-07-26T12:03:41.938Z,26.38
2016-07-26T12:04:43.411Z,26.38
2016-07-26T12:05:42.002Z,26.38
2016-07-26T12:06:42.054Z,26.37
2016-07-26T12:07:42.077Z,26.4
2016-07-26T12:08:42.804Z,26.38
2016-07-26T12:09:42.125Z,26.37
2016-07-26T12:10:42.163Z,26.38
2016-07-26T12:11:42.901Z,26.34
2016-07-26T12:12:42.220Z,26.4
2016-07-26T12:13:42.257Z,26.34
2016-07-26T12:14:42.285Z,26.33
2016-07-26T12:15:43.739Z,26.38
2016-07-26T12:16:43.058Z,26.38
2016-07-26T12:17:43.089Z,26.33
2016-07-26T12:18:42.412Z,26.43
2016-07-26T12:19:43.154Z,26.36
2016-07-26T12:20:42.475Z,26.38
2016-07-26T12:21:42.505Z,26.4
2016-07-26T12:22:42.536Z,26.28
2016-07-26T12:23:43.299Z,26.28
2016-07-26T12:24:42.600Z,26.31
2016-07-26T12:25:42.636Z,26.38
2016-07-26T12:26:42.663Z,26.36
2016-07-26T12:27:43.401Z,26.38
2016-07-26T12:28:42.926Z,26.4
2016-07-26T12:29:42.755Z,26.38
2016-07-26T12:30:42.789Z,26.38
2016-07-26T12:31:42.818Z,26.4
2016-07-26T12:32:42.868Z,26.41
2016-07-26T12:33:42.882Z,26.33
2016-07-26T12:34:42.912Z,26.4
2016-07-26T12:35:42.945Z,26.36
2016-07-26T12:36:42.973Z,26.34
2016-07-26T12:37:43.006Z,26.38
2016-07-26T12:38:43.036Z,26.28
2016-07-26T12:39:43.070Z,26.16
2016-07-26T12:40:43.102Z,26.13
2016-07-26T12:41:43.143Z,26.05
2016-07-26T12:42:43.160Z,26.02
2016-07-26T12:43:43.195Z,25.96
2016-07-26T12:44:43.220Z,25.9
2016-07-26T12:45:43.258Z,25.77
2016-07-26T12:46:43.285Z,25.69
2016-07-26T12:47:43.318Z,25.72
2016-07-26T12:48:43.352Z,25.66
2016-07-26T12:49:43.393Z,25.6
2016-07-26T12:50:43.419Z,25.54
2016-07-26T12:51:43.447Z,25.58
2016-07-26T12:52:43.473Z,25.44
2016-07-26T12:53:43.506Z,25.44
2016-07-26T12:54:43.539Z,25.36
2016-07-26T12:55:43.567Z,25.31
2016-07-26T12:56:43.599Z,25.33
2016-07-26T12:57:44.358Z,25.32